createdAt,value
2023-03-28T00:00:49.823Z,57.29
2023-03-28T00:03:19.608Z,57.27
2023-03-28T00:05:49.063Z,57.28
2023-03-28T00:08:17.188Z,57.63
2023-03-28T00:10:44.304Z,58.00
2023-03-28T00:13:13.946Z,58.56
2023-03-28T00:15:42.170Z,58.73
2023-03-28T00:18:11.633Z,60.19
2023-03-28T00:20:40.045Z,59.08
2023-03-28T00:23:08.106Z,59.98
2023-03-28T00:25:35.904Z,59.94
2023-03-28T00:28:03.453Z,59.47
2023-03-28T00:30:30.152Z,60.88
2023-03-28T00:32:57.557Z,58.91
2023-03-28T00:35:24.595Z,58.39
2023-03-28T00:37:53.700Z,58.63
2023-03-28T00:40:20.192Z,59.26
2023-03-28T00:42:46.706Z,57.45
2023-03-28T00:45:13.610Z,57.36
2023-03-28T00:47:46.371Z,58.90
2023-03-28T00:50:20.826Z,57.87
2023-03-28T00:52:52.811Z,58.12
2023-03-28T00:55:24.279Z,57.34
2023-03-28T00:57:52.971Z,56.24
2023-03-28T01:00:21.048Z,55.40
2023-03-28T01:02:52.459Z,56.59
2023-03-28T01:05:28.240Z,57.17
2023-03-28T01:07:59.291Z,56.23
2023-03-28T01:10:26.737Z,55.49
2023-03-28T01:12:54.823Z,55.10
2023-03-28T01:15:21.647Z,54.96
2023-03-28T01:17:50.576Z,54.93
2023-03-28T01:20:26.687Z,54.60
2023-03-28T01:23:04.508Z,54.43
2023-03-28T01:25:42.321Z,54.32
2023-03-28T01:28:32.571Z,55.38
2023-03-28T01:31:13.596Z,56.98
2023-03-28T01:33:47.623Z,56.16
2023-03-28T01:36:35.732Z,56.15
2023-03-28T01:39:34.937Z,56.35
2023-03-28T01:42:28.242Z,55.65
2023-03-28T01:45:15.008Z,57.45
2023-03-28T01:47:44.017Z,57.30
2023-03-28T01:50:29.678Z,57.03
2023-03-28T01:53:21.632Z,57.21
2023-03-28T01:55:57.200Z,57.19
2023-03-28T01:58:33.058Z,56.17
2023-03-28T02:01:08.013Z,55.92
2023-03-28T02:03:40.727Z,57.71
2023-03-28T02:06:08.994Z,58.46
2023-03-28T02:08:37.986Z,58.04
2023-03-28T02:11:04.873Z,58.26
2023-03-28T02:13:37.713Z,57.91
2023-03-28T02:16:05.095Z,57.46
2023-03-28T02:18:34.819Z,57.00
2023-03-28T02:21:13.076Z,57.16
2023-03-28T02:23:42.750Z,56.72
2023-03-28T02:26:09.736Z,58.13
2023-03-28T02:28:37.168Z,57.92
2023-03-28T02:31:05.175Z,57.04
2023-03-28T02:33:46.156Z,55.71
2023-03-28T02:36:46.938Z,55.59
2023-03-28T02:39:20.865Z,55.34
2023-03-28T02:42:19.896Z,54.18
2023-03-28T02:45:18.664Z,54.45
2023-03-28T02:48:01.080Z,54.63
2023-03-28T02:50:48.803Z,54.97
2023-03-28T02:53:27.044Z,54.61
2023-03-28T02:56:12.833Z,54.44
2023-03-28T02:58:46.337Z,54.86
2023-03-28T03:01:14.596Z,54.35
2023-03-28T03:03:42.397Z,55.80
2023-03-28T03:06:09.832Z,55.37
2023-03-28T03:08:36.414Z,54.89
2023-03-28T03:11:03.034Z,55.49
2023-03-28T03:13:29.854Z,55.12
2023-03-28T03:15:56.651Z,54.54
2023-03-28T03:18:23.778Z,54.95
2023-03-28T03:20:50.345Z,54.28
2023-03-28T03:23:17.291Z,54.70
2023-03-28T03:25:45.085Z,53.57
2023-03-28T03:28:13.097Z,54.50
2023-03-28T03:30:39.798Z,54.16
2023-03-28T03:33:10.183Z,55.26
2023-03-28T03:35:37.719Z,55.56
2023-03-28T03:38:04.481Z,55.00
2023-03-28T03:40:31.039Z,54.96
2023-03-28T03:42:57.680Z,55.61
2023-03-28T03:45:24.279Z,55.22
2023-03-28T03:47:50.765Z,55.31
2023-03-28T03:50:17.464Z,56.64
2023-03-28T03:52:44.205Z,55.01
2023-03-28T03:55:11.600Z,54.76
2023-03-28T03:57:38.143Z,54.73
2023-03-28T04:00:11.678Z,54.33
2023-03-28T04:02:39.364Z,54.27
2023-03-28T04:05:08.555Z,56.00
2023-03-28T04:07:35.715Z,56.57
2023-03-28T04:10:02.658Z,57.10
2023-03-28T04:12:29.274Z,56.67
2023-03-28T04:14:56.260Z,56.10
2023-03-28T04:17:23.537Z,56.81
2023-03-28T04:19:50.454Z,57.27
2023-03-28T04:22:18.317Z,55.70
2023-03-28T04:24:45.827Z,56.93
2023-03-28T04:27:12.373Z,56.66
2023-03-28T04:29:41.676Z,56.71
2023-03-28T04:32:11.098Z,57.19
2023-03-28T04:34:39.074Z,56.36
2023-03-28T04:37:05.972Z,55.76
2023-03-28T04:39:37.002Z,55.22
2023-03-28T04:42:05.612Z,55.04
2023-03-28T04:44:32.634Z,54.39
2023-03-28T04:46:59.648Z,55.36
2023-03-28T04:49:26.760Z,55.94
2023-03-28T04:51:53.486Z,55.71
2023-03-28T04:54:20.379Z,57.80
2023-03-28T04:56:50.339Z,57.73
2023-03-28T04:59:17.620Z,58.82
2023-03-28T05:01:49.351Z,57.56
2023-03-28T05:04:19.904Z,59.46
2023-03-28T05:06:47.015Z,58.49
2023-03-28T05:09:14.335Z,59.31
2023-03-28T05:11:41.231Z,59.28
2023-03-28T05:14:08.117Z,57.94
2023-03-28T05:16:34.675Z,58.63
2023-03-28T05:19:01.613Z,60.15
2023-03-28T05:21:29.018Z,62.33
2023-03-28T05:23:56.217Z,60.99
2023-03-28T05:26:22.947Z,61.02
2023-03-28T05:28:49.668Z,61.59
2023-03-28T05:31:17.268Z,61.39
2023-03-28T05:33:44.297Z,61.14
2023-03-28T05:36:12.849Z,60.61
2023-03-28T05:38:39.535Z,62.20
2023-03-28T05:41:06.367Z,63.57
2023-03-28T05:43:32.921Z,63.08
2023-03-28T05:45:59.590Z,63.13
2023-03-28T05:48:26.140Z,61.42
2023-03-28T05:50:52.749Z,61.24
2023-03-28T05:53:19.262Z,60.88
2023-03-28T05:55:45.869Z,59.33
2023-03-28T05:58:13.631Z,58.64
2023-03-28T06:00:41.929Z,58.54
2023-03-28T06:03:09.510Z,58.50
2023-03-28T06:05:43.178Z,57.34
2023-03-28T06:08:10.016Z,56.72
2023-03-28T06:10:36.870Z,56.27
2023-03-28T06:13:03.417Z,55.92
2023-03-28T06:15:29.961Z,56.42
2023-03-28T06:17:57.875Z,56.63
2023-03-28T06:20:24.474Z,56.01
2023-03-28T06:22:51.037Z,54.95
2023-03-28T06:25:17.971Z,54.69
2023-03-28T06:27:44.460Z,54.55
2023-03-28T06:30:11.619Z,55.30
2023-03-28T06:32:38.496Z,55.87
2023-03-28T06:35:05.656Z,58.16
2023-03-28T06:37:32.473Z,57.87
2023-03-28T06:39:59.419Z,58.63
2023-03-28T06:42:27.204Z,57.65
2023-03-28T06:44:53.771Z,56.99
2023-03-28T06:47:20.704Z,57.99
2023-03-28T06:49:47.241Z,57.17
2023-03-28T06:52:13.770Z,57.42
2023-03-28T06:54:40.649Z,56.60
2023-03-28T06:57:07.363Z,56.68
2023-03-28T06:59:34.439Z,56.52
2023-03-28T07:02:01.080Z,56.48
2023-03-28T07:04:27.784Z,56.29
2023-03-28T07:06:54.279Z,55.38
2023-03-28T07:09:21.229Z,55.82
2023-03-28T07:11:55.427Z,55.43
2023-03-28T07:14:22.405Z,56.67
2023-03-28T07:16:59.117Z,54.90
2023-03-28T07:19:25.962Z,54.23
2023-03-28T07:21:53.153Z,53.75
2023-03-28T07:24:19.798Z,53.10
2023-03-28T07:26:46.415Z,52.73
2023-03-28T07:29:13.649Z,52.65
2023-03-28T07:31:40.308Z,51.82
2023-03-28T07:34:06.937Z,53.21
2023-03-28T07:36:33.551Z,53.65
2023-03-28T07:39:00.026Z,55.37
2023-03-28T07:41:26.573Z,55.16
2023-03-28T07:43:53.028Z,55.65
2023-03-28T07:46:20.957Z,54.98
2023-03-28T07:48:47.723Z,53.27
2023-03-28T07:51:15.133Z,53.05
2023-03-28T07:53:41.910Z,52.79
2023-03-28T07:56:10.561Z,52.94
2023-03-28T07:58:38.878Z,51.69
2023-03-28T08:01:10.972Z,51.71
2023-03-28T08:03:37.705Z,53.82
2023-03-28T08:06:11.312Z,52.54
2023-03-28T08:08:47.025Z,52.02
2023-03-28T08:11:13.555Z,51.51
2023-03-28T08:13:40.267Z,49.91
2023-03-28T08:16:07.364Z,49.21
2023-03-28T08:18:33.976Z,49.76
2023-03-28T08:21:02.512Z,49.92
2023-03-28T08:23:29.747Z,48.90
2023-03-28T08:26:04.813Z,49.03
2023-03-28T08:28:35.765Z,48.94
2023-03-28T08:31:09.154Z,47.33
2023-03-28T08:33:35.827Z,46.79
2023-03-28T08:36:02.498Z,47.16
2023-03-28T08:38:29.173Z,47.53
2023-03-28T08:41:02.451Z,47.89
2023-03-28T08:43:49.449Z,47.73
2023-03-28T08:47:04.609Z,45.82
2023-03-28T08:49:35.987Z,43.60
2023-03-28T08:52:03.194Z,43.96
2023-03-28T08:54:41.436Z,44.35
2023-03-28T08:57:17.470Z,45.53
2023-03-28T09:00:14.944Z,45.41
2023-03-28T09:02:42.799Z,46.12
2023-03-28T09:05:23.727Z,45.21
2023-03-28T09:08:04.305Z,44.24
2023-03-28T09:10:45.006Z,43.50
2023-03-28T09:13:30.370Z,43.00
2023-03-28T09:16:27.330Z,44.38
2023-03-28T09:19:21.852Z,44.72
2023-03-28T09:22:15.732Z,45.39
2023-03-28T09:25:00.153Z,44.45
2023-03-28T09:27:37.747Z,44.21
2023-03-28T09:30:17.771Z,43.18
2023-03-28T09:32:45.022Z,42.20
2023-03-28T09:35:17.442Z,40.29
2023-03-28T09:37:48.760Z,39.70
2023-03-28T09:40:28.616Z,40.28
2023-03-28T09:43:19.780Z,37.98
2023-03-28T09:46:22.192Z,31.43
2023-03-28T09:48:49.111Z,26.19
2023-03-28T09:51:17.553Z,23.74
2023-03-28T09:53:44.040Z,21.91
2023-03-28T09:56:19.897Z,26.77
2023-03-28T09:58:52.995Z,27.54
2023-03-28T10:01:38.986Z,29.05
2023-03-28T10:04:19.994Z,31.58
2023-03-28T10:06:48.133Z,29.83
2023-03-28T10:09:31.544Z,26.60
2023-03-28T10:11:59.755Z,24.66
2023-03-28T10:14:40.716Z,23.69
2023-03-28T10:17:25.977Z,23.28
2023-03-28T10:19:53.901Z,28.71
2023-03-28T10:22:26.093Z,29.72
2023-03-28T10:24:53.176Z,35.19
2023-03-28T10:27:25.849Z,35.17
2023-03-28T10:29:54.642Z,36.95
2023-03-28T10:32:29.563Z,35.38
2023-03-28T10:35:25.056Z,31.10
2023-03-28T10:37:56.251Z,25.86
2023-03-28T10:40:27.985Z,22.86
2023-03-28T10:42:56.549Z,24.26
2023-03-28T10:45:24.451Z,25.96
2023-03-28T10:47:53.375Z,28.45
2023-03-28T10:50:25.485Z,30.43
2023-03-28T10:53:38.670Z,31.49
2023-03-28T10:56:34.506Z,34.33
2023-03-28T10:59:19.800Z,34.51
2023-03-28T11:01:58.672Z,35.08
2023-03-28T11:04:34.258Z,34.21
2023-03-28T11:07:04.468Z,34.97
2023-03-28T11:09:59.798Z,33.48
2023-03-28T11:12:43.725Z,33.61
2023-03-28T11:15:24.566Z,32.94
2023-03-28T11:18:09.727Z,33.76
2023-03-28T11:21:01.317Z,32.75
2023-03-28T11:23:48.989Z,32.15
2023-03-28T11:26:20.734Z,30.97
2023-03-28T11:28:50.477Z,29.76
2023-03-28T11:31:33.448Z,27.98
2023-03-28T11:34:05.103Z,29.15
2023-03-28T11:36:51.335Z,28.69
2023-03-28T11:39:26.760Z,28.61
2023-03-28T11:41:53.908Z,28.76
2023-03-28T11:44:28.320Z,26.46
2023-03-28T11:47:12.320Z,23.61
2023-03-28T11:49:47.882Z,24.05
2023-03-28T11:52:25.901Z,24.43
2023-03-28T11:55:04.555Z,24.00
2023-03-28T11:57:57.761Z,21.65
2023-03-28T12:00:34.266Z,25.56
2023-03-28T12:03:13.403Z,25.69
2023-03-28T12:05:46.885Z,25.06
2023-03-28T12:08:23.650Z,24.99
2023-03-28T12:10:52.913Z,24.07
2023-03-28T12:13:25.577Z,25.32
2023-03-28T12:15:58.887Z,24.84
2023-03-28T12:18:36.850Z,22.53
2023-03-28T12:21:12.004Z,24.27
2023-03-28T12:24:00.273Z,25.99
2023-03-28T12:27:00.974Z,27.00
2023-03-28T12:29:44.144Z,27.21
2023-03-28T12:32:14.065Z,28.79
2023-03-28T12:34:45.945Z,28.98
2023-03-28T12:37:14.773Z,29.55
2023-03-28T12:39:44.598Z,29.29
2023-03-28T12:42:13.274Z,30.07
2023-03-28T12:44:44.258Z,30.88
2023-03-28T12:47:17.218Z,31.45
2023-03-28T12:49:46.899Z,31.16
2023-03-28T12:52:24.431Z,30.69
2023-03-28T12:55:03.365Z,29.26
2023-03-28T12:57:45.588Z,29.48
2023-03-28T13:00:23.749Z,30.88
2023-03-28T13:02:59.364Z,29.90
2023-03-28T13:05:38.903Z,29.89
2023-03-28T13:08:31.833Z,31.60
2023-03-28T13:11:23.396Z,31.20
2023-03-28T13:13:58.088Z,31.10
2023-03-28T13:16:42.723Z,30.30
2023-03-28T13:19:11.473Z,30.74
2023-03-28T13:21:47.815Z,30.70
2023-03-28T13:24:26.704Z,31.10
2023-03-28T13:26:54.648Z,29.76
2023-03-28T13:29:21.266Z,30.99
2023-03-28T13:31:48.032Z,30.54
2023-03-28T13:34:23.105Z,30.47
2023-03-28T13:36:54.084Z,30.75
2023-03-28T13:39:22.317Z,30.54
2023-03-28T13:41:48.847Z,31.52
2023-03-28T13:44:19.156Z,30.97
2023-03-28T13:46:48.037Z,30.90
2023-03-28T13:49:19.348Z,31.12
2023-03-28T13:51:46.318Z,30.36
2023-03-28T13:54:12.855Z,30.94
2023-03-28T13:56:43.553Z,31.21
2023-03-28T13:59:16.652Z,30.24
2023-03-28T14:02:15.768Z,29.12
2023-03-28T14:04:53.638Z,29.04
2023-03-28T14:07:28.241Z,29.26
2023-03-28T14:09:56.628Z,30.40
2023-03-28T14:12:25.225Z,30.34
2023-03-28T14:14:54.238Z,29.28
2023-03-28T14:17:23.698Z,28.89
2023-03-28T14:19:56.785Z,29.45
2023-03-28T14:22:28.859Z,29.25
2023-03-28T14:24:59.364Z,30.10
2023-03-28T14:27:48.105Z,28.57
2023-03-28T14:30:32.427Z,29.23
2023-03-28T14:33:02.319Z,29.34
2023-03-28T14:35:30.967Z,29.72
2023-03-28T14:38:03.668Z,28.60
2023-03-28T14:40:37.217Z,29.79
2023-03-28T14:43:20.607Z,29.20
2023-03-28T14:45:50.385Z,28.70
2023-03-28T14:48:27.304Z,28.70
2023-03-28T14:50:54.642Z,28.18
2023-03-28T14:53:27.329Z,28.42
2023-03-28T14:55:58.159Z,29.33
2023-03-28T14:58:27.384Z,29.49
2023-03-28T15:00:58.249Z,28.77
2023-03-28T15:03:35.398Z,27.48
2023-03-28T15:06:02.506Z,28.14
2023-03-28T15:08:34.275Z,27.48
2023-03-28T15:11:11.662Z,27.04
2023-03-28T15:13:39.977Z,27.03
2023-03-28T15:16:08.217Z,27.52
2023-03-28T15:18:48.923Z,27.58
2023-03-28T15:21:15.699Z,28.34
2023-03-28T15:23:49.052Z,28.09
2023-03-28T15:26:28.934Z,28.47
2023-03-28T15:28:56.737Z,29.06
2023-03-28T15:31:24.591Z,29.64
2023-03-28T15:33:52.802Z,29.86
2023-03-28T15:36:25.022Z,28.71
2023-03-28T15:38:59.588Z,29.42
2023-03-28T15:41:33.324Z,28.98
2023-03-28T15:44:10.481Z,30.19
2023-03-28T15:46:37.172Z,29.48
2023-03-28T15:49:05.357Z,28.57
2023-03-28T15:51:42.210Z,28.36
2023-03-28T15:54:23.832Z,28.29
2023-03-28T15:56:56.520Z,29.18
2023-03-28T15:59:39.387Z,30.67
2023-03-28T16:02:24.180Z,30.32
2023-03-28T16:04:56.908Z,30.15
2023-03-28T16:07:23.505Z,30.85
2023-03-28T16:09:51.409Z,32.27
2023-03-28T16:12:19.121Z,32.14
2023-03-28T16:14:48.834Z,31.89
2023-03-28T16:17:15.627Z,31.79
2023-03-28T16:19:43.811Z,32.68
2023-03-28T16:22:10.598Z,33.18
2023-03-28T16:24:37.121Z,32.64
2023-03-28T16:27:03.822Z,32.68
2023-03-28T16:29:31.660Z,32.47
2023-03-28T16:31:58.191Z,33.94
2023-03-28T16:34:24.971Z,33.25
2023-03-28T16:36:51.714Z,33.95
2023-03-28T16:39:18.594Z,33.69
2023-03-28T16:41:45.520Z,33.54
2023-03-28T16:44:12.046Z,33.34
2023-03-28T16:46:38.668Z,33.54
2023-03-28T16:49:05.243Z,33.97
2023-03-28T16:51:31.852Z,33.18
2023-03-28T16:53:58.575Z,34.02
2023-03-28T16:56:27.218Z,34.63
2023-03-28T16:58:54.557Z,33.55
2023-03-28T17:01:21.146Z,33.51
2023-03-28T17:03:49.616Z,33.88
2023-03-28T17:06:16.730Z,33.17
2023-03-28T17:08:44.202Z,33.12
2023-03-28T17:11:12.206Z,33.76
2023-03-28T17:13:39.983Z,34.48
2023-03-28T17:16:08.669Z,35.42
2023-03-28T17:18:35.949Z,34.41
2023-03-28T17:21:07.965Z,34.26
2023-03-28T17:23:35.300Z,34.52
2023-03-28T17:26:02.259Z,35.11
2023-03-28T17:28:29.711Z,34.67
2023-03-28T17:30:56.851Z,34.74
2023-03-28T17:33:23.649Z,35.16
2023-03-28T17:35:50.763Z,33.88
2023-03-28T17:38:17.286Z,35.07
2023-03-28T17:40:47.863Z,34.97
2023-03-28T17:43:14.662Z,34.72
2023-03-28T17:45:41.423Z,34.92
2023-03-28T17:48:08.315Z,35.91
2023-03-28T17:50:34.922Z,34.91
2023-03-28T17:53:01.456Z,35.26
2023-03-28T17:55:28.655Z,34.56
2023-03-28T17:57:55.706Z,35.41
2023-03-28T18:00:22.320Z,35.36
2023-03-28T18:02:50.782Z,34.94
2023-03-28T18:05:18.114Z,34.81
2023-03-28T18:07:44.819Z,35.10
2023-03-28T18:10:11.996Z,34.96
2023-03-28T18:12:38.551Z,34.84
2023-03-28T18:15:06.502Z,35.35
2023-03-28T18:17:33.091Z,34.59
2023-03-28T18:19:59.834Z,34.35
2023-03-28T18:22:26.989Z,34.61
2023-03-28T18:24:54.373Z,34.08
2023-03-28T18:27:21.721Z,34.75
2023-03-28T18:29:49.352Z,34.40
2023-03-28T18:32:16.447Z,33.90
2023-03-28T18:34:43.589Z,33.95
2023-03-28T18:37:11.838Z,34.04
2023-03-28T18:39:41.526Z,34.75
2023-03-28T18:42:08.645Z,34.44
2023-03-28T18:44:37.143Z,34.33
2023-03-28T18:47:05.224Z,34.66
2023-03-28T18:49:32.026Z,34.42
2023-03-28T18:52:04.842Z,34.13
2023-03-28T18:54:32.565Z,34.84
2023-03-28T18:56:59.471Z,34.27
2023-03-28T18:59:26.975Z,34.16
2023-03-28T19:01:53.892Z,34.27
2023-03-28T19:04:23.121Z,34.73
2023-03-28T19:06:50.369Z,33.70
2023-03-28T19:09:16.974Z,33.16
2023-03-28T19:11:43.690Z,33.63
2023-03-28T19:14:10.424Z,33.25
2023-03-28T19:16:37.258Z,33.53
2023-03-28T19:19:04.021Z,32.93
2023-03-28T19:21:30.689Z,33.40
2023-03-28T19:23:57.417Z,33.77
2023-03-28T19:26:23.925Z,34.51
2023-03-28T19:28:51.334Z,34.37
2023-03-28T19:31:18.147Z,34.99
2023-03-28T19:33:45.263Z,34.91
2023-03-28T19:36:11.928Z,35.39
2023-03-28T19:38:39.223Z,35.62
2023-03-28T19:41:10.410Z,36.50
2023-03-28T19:43:37.817Z,36.31
2023-03-28T19:46:06.288Z,35.50
2023-03-28T19:48:33.280Z,36.52
2023-03-28T19:50:59.761Z,36.11
2023-03-28T19:53:27.133Z,36.51
2023-03-28T19:55:54.873Z,36.93
2023-03-28T19:58:23.239Z,36.44
2023-03-28T20:00:50.055Z,38.69
2023-03-28T20:03:17.245Z,38.30
2023-03-28T20:05:45.812Z,37.95
2023-03-28T20:08:12.523Z,37.72
2023-03-28T20:10:43.537Z,39.16
2023-03-28T20:13:10.877Z,39.55
2023-03-28T20:15:38.593Z,40.04
2023-03-28T20:18:05.682Z,41.00
2023-03-28T20:24:31.546Z,43.33
2023-03-28T20:26:58.502Z,43.76
2023-03-28T20:29:25.385Z,44.13
2023-03-28T20:31:52.630Z,44.38
2023-03-28T20:34:19.154Z,43.59
2023-03-28T20:36:46.419Z,44.39
2023-03-28T20:39:14.180Z,46.54
2023-03-28T20:41:40.889Z,47.18
2023-03-28T20:44:08.622Z,47.91
2023-03-28T20:46:38.651Z,48.06
2023-03-28T20:49:06.216Z,48.55
2023-03-28T20:51:33.016Z,48.79
2023-03-28T20:54:00.769Z,47.84
2023-03-28T20:56:29.661Z,47.45
2023-03-28T20:58:58.111Z,48.82
2023-03-28T21:01:29.947Z,48.40
2023-03-28T21:03:59.746Z,49.69
2023-03-28T21:06:33.252Z,49.07
2023-03-28T21:09:04.473Z,50.18
2023-03-28T21:11:33.090Z,50.42
2023-03-28T21:14:00.310Z,50.51
2023-03-28T21:16:28.135Z,51.17
2023-03-28T21:18:54.702Z,52.54
2023-03-28T21:21:21.919Z,52.95
2023-03-28T21:23:49.200Z,54.73
2023-03-28T21:26:18.156Z,55.70
2023-03-28T21:28:45.786Z,56.19
2023-03-28T21:31:14.365Z,58.71
2023-03-28T21:33:42.778Z,59.15
2023-03-28T21:36:11.642Z,60.78
2023-03-28T21:38:39.058Z,62.95
2023-03-28T21:41:07.430Z,65.29
2023-03-28T21:43:34.651Z,65.90
2023-03-28T21:46:02.143Z,65.81
2023-03-28T21:48:29.404Z,68.18
2023-03-28T21:51:00.592Z,67.94
2023-03-28T21:53:36.190Z,67.42
2023-03-28T21:56:04.078Z,67.48
2023-03-28T21:58:32.739Z,67.65
2023-03-28T22:01:01.397Z,67.62
2023-03-28T22:03:28.696Z,68.84
2023-03-28T22:05:55.616Z,69.62
2023-03-28T22:08:22.906Z,68.84
2023-03-28T22:10:52.606Z,67.81
2023-03-28T22:13:19.995Z,69.52
2023-03-28T22:15:47.214Z,70.06
2023-03-28T22:18:15.744Z,70.10
2023-03-28T22:20:43.603Z,70.53
2023-03-28T22:23:10.529Z,70.49
2023-03-28T22:25:38.275Z,71.14
2023-03-28T22:28:09.877Z,71.73
2023-03-28T22:30:40.090Z,71.70
2023-03-28T22:33:09.610Z,70.69
2023-03-28T22:35:36.494Z,70.46
2023-03-28T22:38:03.978Z,69.61
2023-03-28T22:40:31.698Z,70.41
2023-03-28T22:42:58.324Z,70.63
2023-03-28T22:45:27.272Z,70.99
2023-03-28T22:47:54.563Z,70.64
2023-03-28T22:50:22.427Z,69.95
2023-03-28T22:52:52.863Z,70.44
2023-03-28T22:55:22.137Z,71.26
2023-03-28T22:57:51.598Z,70.21
2023-03-28T23:00:18.822Z,71.05
2023-03-28T23:02:47.589Z,69.93
2023-03-28T23:05:14.360Z,71.17
2023-03-28T23:07:44.752Z,70.59
2023-03-28T23:10:19.165Z,70.13
2023-03-28T23:12:47.277Z,70.67
2023-03-28T23:15:14.056Z,70.05
2023-03-28T23:17:40.904Z,71.14
2023-03-28T23:20:12.361Z,69.74
2023-03-28T23:22:43.522Z,69.42
2023-03-28T23:25:12.378Z,69.31
2023-03-28T23:27:39.420Z,68.60
2023-03-28T23:30:06.812Z,68.55
2023-03-28T23:32:33.397Z,69.02
2023-03-28T23:35:00.116Z,68.51
2023-03-28T23:37:27.495Z,68.71
2023-03-28T23:39:54.834Z,67.90
2023-03-28T23:42:21.784Z,68.06
2023-03-28T23:44:48.312Z,67.79
2023-03-28T23:47:15.343Z,69.20
2023-03-28T23:49:42.532Z,69.62
2023-03-28T23:52:09.918Z,69.18
2023-03-28T23:54:36.467Z,67.96
2023-03-28T23:57:03.612Z,68.33
2023-03-28T23:59:30.183Z,67.61
